Enfidha, Tunisia
Current Conditions -  °F | °C
As of 6:00 AM on Thursday 25 Dec 2014 (Local Time) from DTNH Reporting Station
Clear Clear  
Wind Chill: 36°   Ceiling: Unl
Heat Index: 36°   Visibility: 6mi
Dew Point: 32°   Wind: 3mph
Humidity: 87%   Direction: 210°SSW
Pressure: 30.33"   Gusts: NA
Location:  36.14°N, 10.38°E
Report Text: DTNH 250500Z AUTO 21003KT 9000NDV NCD 02/M00 Q1027
Loading
Personal Weather Stations






























Interactive Weather Map New forecast layout! Learn more

10-Day Weather Forecast

Advertisements
Track Severe Weather on mobile